Time;durP1;ratioP1;P1;durP2;ratioP2;P2;SDS_P1;SDS_P2;PMS_P1;PMS_P2;Temp;Humidity;BMP_temperature;BMP_pressure;BME280_temperature;BME280_humidity;BME280_pressure;Samples;Min_cycle;Max_cycle;Signal;HPM_P1;HPM_P2
2021/12/21 00:00:27;;;;;;;0.20;0.20;;;;;;;;;;5101938;28;20196;-65
2021/12/21 00:02:56;;;;;;;0.20;0.20;;;;;;;;;;5102021;28;20243;-65
2021/12/21 00:05:29;;;;;;;0.15;0.15;;;;;;;;;;5113413;28;20229;-66
2021/12/21 00:07:58;;;;;;;0.20;0.20;;;;;;;;;;5112938;28;20273;-65
2021/12/21 00:10:27;;;;;;;0.20;0.20;;;;;;;;;;5113254;28;20207;-65
2021/12/21 00:13:05;;;;;;;0.20;0.20;;;;;;;;;;5103694;28;20216;-66
2021/12/21 00:15:41;;;;;;;0.20;0.20;;;;;;;;;;5104713;28;20197;-66
2021/12/21 00:18:22;;;;;;;0.20;0.20;;;;;;;;;;5121878;28;20201;-65
2021/12/21 00:20:58;;;;;;;0.20;0.20;;;;;;;;;;5123485;28;20196;-65
2021/12/21 00:23:34;;;;;;;0.20;0.20;;;;;;;;;;5095503;28;20220;-65
2021/12/21 00:26:05;;;;;;;0.20;0.20;;;;;;;;;;5113422;28;20280;-65
2021/12/21 00:28:37;;;;;;;0.10;0.10;;;;;;;;;;5106880;27;20291;-65
2021/12/21 00:31:05;;;;;;;0.20;0.20;;;;;;;;;;5117767;27;20313;-64
2021/12/21 00:33:34;;;;;;;0.20;0.20;;;;;;;;;;5109176;27;20216;-65
2021/12/21 00:36:03;;;;;;;0.20;0.20;;;;;;;;;;5107556;27;20211;-65
2021/12/21 00:38:31;;;;;;;0.20;0.20;;;;;;;;;;5107146;27;20200;-66
2021/12/21 00:40:58;;;;;;;0.20;0.20;;;;;;;;;;5126753;27;20291;-66
2021/12/21 00:43:26;;;;;;;0.10;0.10;;;;;;;;;;5109531;27;20212;-65
2021/12/21 00:45:54;;;;;;;0.20;0.20;;;;;;;;;;5107540;27;20205;-66
2021/12/21 00:48:27;;;;;;;0.20;0.20;;;;;;;;;;5116334;27;20197;-65
2021/12/21 00:50:56;;;;;;;0.20;0.20;;;;;;;;;;5107055;27;20211;-66
2021/12/21 00:53:24;;;;;;;0.20;0.20;;;;;;;;;;5124549;27;20223;-65
2021/12/21 00:55:52;;;;;;;0.20;0.20;;;;;;;;;;5123732;27;20201;-66
2021/12/21 00:58:20;;;;;;;0.20;0.20;;;;;;;;;;5105769;27;20206;-65
2021/12/21 01:00:48;;;;;;;0.20;0.20;;;;;;;;;;5105947;27;20303;-65
2021/12/21 01:03:17;;;;;;;0.20;0.20;;;;;;;;;;5105265;27;20292;-65
2021/12/21 01:05:50;;;;;;;0.20;0.20;;;;;;;;;;5098220;27;20201;-66
2021/12/21 01:08:23;;;;;;;0.20;0.20;;;;;;;;;;5103848;27;20213;-66
2021/12/21 01:11:02;;;;;;;0.20;0.20;;;;;;;;;;5125476;27;20201;-66
2021/12/21 01:13:43;;;;;;;0.20;0.20;;;;;;;;;;5105334;27;20307;-65
2021/12/21 01:16:26;;;;;;;0.20;0.20;;;;;;;;;;5104557;27;20267;-66
2021/12/21 01:19:10;;;;;;;0.20;0.20;;;;;;;;;;5123304;27;20261;-66
2021/12/21 01:21:43;;;;;;;0.20;0.20;;;;;;;;;;5110603;27;20272;-65
2021/12/21 01:24:30;;;;;;;0.20;0.20;;;;;;;;;;5096423;27;20213;-65
2021/12/21 01:27:11;;;;;;;0.20;0.20;;;;;;;;;;5097629;27;20622;-66
2021/12/21 01:29:48;;;;;;;0.20;0.20;;;;;;;;;;5095281;27;20679;-66
2021/12/21 01:32:24;;;;;;;0.20;0.20;;;;;;;;;;5124539;27;20208;-66
2021/12/21 01:34:59;;;;;;;0.20;0.20;;;;;;;;;;5122437;27;20257;-65
2021/12/21 01:37:34;;;;;;;0.10;0.10;;;;;;;;;;5102662;27;20192;-66
2021/12/21 01:40:16;;;;;;;0.20;0.20;;;;;;;;;;5121960;27;20249;-65
2021/12/21 01:43:04;;;;;;;0.20;0.20;;;;;;;;;;5113457;27;20216;-65
2021/12/21 01:51:02;;;;;;;0.20;0.20;;;;;;;;;;5105011;27;20256;-65
2021/12/21 01:53:30;;;;;;;0.20;0.20;;;;;;;;;;5125902;27;20243;-65
2021/12/21 01:55:58;;;;;;;0.20;0.20;;;;;;;;;;5125416;27;20638;-65
2021/12/21 01:58:26;;;;;;;0.20;0.20;;;;;;;;;;5106752;27;20200;-65
2021/12/21 02:00:53;;;;;;;0.10;0.10;;;;;;;;;;5111460;27;20295;-66
2021/12/21 02:03:20;;;;;;;0.20;0.20;;;;;;;;;;5103281;27;20219;-65
2021/12/21 02:05:47;;;;;;;0.20;0.20;;;;;;;;;;5099117;27;20207;-66
2021/12/21 02:08:15;;;;;;;0.10;0.10;;;;;;;;;;5124621;27;20240;-65
2021/12/21 02:10:42;;;;;;;0.20;0.20;;;;;;;;;;5124662;27;20286;-66
2021/12/21 02:13:11;;;;;;;0.20;0.20;;;;;;;;;;5104166;27;20220;-65
2021/12/21 02:15:38;;;;;;;0.20;0.20;;;;;;;;;;5106005;27;20694;-66
2021/12/21 02:18:33;;;;;;;0.20;0.20;;;;;;;;;;5124245;27;20208;-65
2021/12/21 02:21:07;;;;;;;0.10;0.10;;;;;;;;;;5123122;27;20192;-65
2021/12/21 02:23:37;;;;;;;0.20;0.20;;;;;;;;;;5122075;27;20221;-66
2021/12/21 02:28:59;;;;;;;0.20;0.20;;;;;;;;;;5122186;27;20243;-65
2021/12/21 02:31:26;;;;;;;0.20;0.20;;;;;;;;;;5104054;27;20197;-65
2021/12/21 02:33:54;;;;;;;0.20;0.20;;;;;;;;;;5103902;27;20273;-66
2021/12/21 02:36:23;;;;;;;0.20;0.20;;;;;;;;;;5122700;27;20188;-65
2021/12/21 02:38:50;;;;;;;0.20;0.20;;;;;;;;;;5118542;27;20220;-66
2021/12/21 02:41:18;;;;;;;0.20;0.20;;;;;;;;;;5102374;27;20210;-66
2021/12/21 02:43:45;;;;;;;0.20;0.20;;;;;;;;;;5122865;27;20208;-65
2021/12/21 02:46:12;;;;;;;0.20;0.20;;;;;;;;;;5104632;27;20224;-65
2021/12/21 02:48:39;;;;;;;0.22;0.22;;;;;;;;;;5119974;27;20216;-66
2021/12/21 02:51:07;;;;;;;0.20;0.20;;;;;;;;;;5102173;27;20197;-65
2021/12/21 02:53:36;;;;;;;0.20;0.20;;;;;;;;;;5123148;27;20239;-65
2021/12/21 02:56:03;;;;;;;0.20;0.20;;;;;;;;;;5105363;27;20200;-65
2021/12/21 02:58:31;;;;;;;0.20;0.20;;;;;;;;;;5122497;27;20204;-65
2021/12/21 03:00:58;;;;;;;0.20;0.20;;;;;;;;;;5104065;27;20205;-65
2021/12/21 03:03:27;;;;;;;0.20;0.20;;;;;;;;;;5122377;27;20212;-65
2021/12/21 03:05:57;;;;;;;0.20;0.20;;;;;;;;;;5103092;28;20209;-66
2021/12/21 03:08:35;;;;;;;0.20;0.20;;;;;;;;;;5119946;27;20249;-66
2021/12/21 03:11:11;;;;;;;0.20;0.20;;;;;;;;;;5103135;27;20205;-66
2021/12/21 03:14:03;;;;;;;0.20;0.20;;;;;;;;;;5104344;27;20285;-66
2021/12/21 03:16:32;;;;;;;0.20;0.20;;;;;;;;;;5103620;27;20192;-65
2021/12/21 03:18:59;;;;;;;0.20;0.20;;;;;;;;;;5100778;27;20188;-65
2021/12/21 03:21:27;;;;;;;0.20;0.20;;;;;;;;;;5122703;27;20208;-66
2021/12/21 03:23:54;;;;;;;0.20;0.20;;;;;;;;;;5122049;27;20193;-66
2021/12/21 03:26:23;;;;;;;0.20;0.20;;;;;;;;;;5119914;27;20200;-65
2021/12/21 03:28:51;;;;;;;0.20;0.20;;;;;;;;;;5121412;27;20563;-66
2021/12/21 03:31:18;;;;;;;0.20;0.20;;;;;;;;;;5102053;28;20225;-66
2021/12/21 03:33:46;;;;;;;0.20;0.20;;;;;;;;;;5102984;28;20200;-66
2021/12/21 03:36:16;;;;;;;0.20;0.20;;;;;;;;;;5101164;27;20229;-65
2021/12/21 03:38:48;;;;;;;0.20;0.20;;;;;;;;;;5103429;28;20274;-66
2021/12/21 03:41:17;;;;;;;0.20;0.20;;;;;;;;;;5102702;28;20192;-66
2021/12/21 03:43:46;;;;;;;0.20;0.20;;;;;;;;;;5121638;28;20244;-66
2021/12/21 03:46:15;;;;;;;0.20;0.20;;;;;;;;;;5121117;28;20249;-66
2021/12/21 03:48:45;;;;;;;0.10;0.10;;;;;;;;;;5111797;28;20216;-66
2021/12/21 03:51:13;;;;;;;0.20;0.20;;;;;;;;;;5100690;28;20204;-66
2021/12/21 03:53:41;;;;;;;0.20;0.20;;;;;;;;;;5096313;28;20228;-66
2021/12/21 03:56:28;;;;;;;0.20;0.20;;;;;;;;;;5102489;28;20375;-66
2021/12/21 03:58:57;;;;;;;0.20;0.20;;;;;;;;;;5100880;28;20303;-66
2021/12/21 04:01:24;;;;;;;0.30;0.30;;;;;;;;;;5118301;27;20224;-65
2021/12/21 04:03:51;;;;;;;0.20;0.20;;;;;;;;;;5105410;27;20246;-66
2021/12/21 04:06:19;;;;;;;0.13;0.13;;;;;;;;;;5115043;27;20223;-65
2021/12/21 04:08:46;;;;;;;0.20;0.20;;;;;;;;;;5107864;27;20288;-66
2021/12/21 04:11:14;;;;;;;0.20;0.20;;;;;;;;;;5107070;27;20675;-66
2021/12/21 04:13:41;;;;;;;0.20;0.20;;;;;;;;;;5124792;27;20246;-66
2021/12/21 04:16:10;;;;;;;0.20;0.20;;;;;;;;;;5104475;27;20257;-66
2021/12/21 04:18:39;;;;;;;0.20;0.20;;;;;;;;;;5107802;27;20254;-66
2021/12/21 04:21:09;;;;;;;0.20;0.20;;;;;;;;;;5106058;27;20207;-66
2021/12/21 04:23:36;;;;;;;0.20;0.20;;;;;;;;;;5124931;27;20219;-66
2021/12/21 04:26:04;;;;;;;0.20;0.20;;;;;;;;;;5125495;27;20193;-66
2021/12/21 04:28:32;;;;;;;0.20;0.20;;;;;;;;;;5125820;27;20252;-66
2021/12/21 04:30:59;;;;;;;0.20;0.20;;;;;;;;;;5124630;27;20193;-66
2021/12/21 04:33:28;;;;;;;0.22;0.22;;;;;;;;;;5105355;27;20228;-66
2021/12/21 04:35:55;;;;;;;0.20;0.20;;;;;;;;;;5105700;27;20202;-65
2021/12/21 04:38:26;;;;;;;0.20;0.20;;;;;;;;;;5106409;27;20288;-66
2021/12/21 04:40:58;;;;;;;0.20;0.20;;;;;;;;;;5096636;27;20588;-66
2021/12/21 04:43:25;;;;;;;0.20;0.20;;;;;;;;;;5096442;27;20233;-66
2021/12/21 04:45:53;;;;;;;0.20;0.20;;;;;;;;;;5112127;27;20300;-66
2021/12/21 04:48:20;;;;;;;0.20;0.20;;;;;;;;;;5115043;27;20218;-66
2021/12/21 04:50:49;;;;;;;0.20;0.20;;;;;;;;;;5104422;27;20291;-65
2021/12/21 04:53:17;;;;;;;0.20;0.20;;;;;;;;;;5104289;27;20304;-66
2021/12/21 04:55:44;;;;;;;0.20;0.20;;;;;;;;;;5123354;27;20196;-66
2021/12/21 04:58:11;;;;;;;0.20;0.20;;;;;;;;;;5125060;27;20208;-66
2021/12/21 05:00:40;;;;;;;0.20;0.20;;;;;;;;;;5104948;27;20232;-66
2021/12/21 05:03:07;;;;;;;0.20;0.20;;;;;;;;;;5123371;27;20701;-66
2021/12/21 05:05:35;;;;;;;0.20;0.20;;;;;;;;;;5104465;27;20197;-67
2021/12/21 05:08:08;;;;;;;0.20;0.20;;;;;;;;;;5104824;27;20271;-66
2021/12/21 05:10:42;;;;;;;0.20;0.20;;;;;;;;;;5123114;27;20197;-65
2021/12/21 05:13:09;;;;;;;0.20;0.20;;;;;;;;;;5104971;27;20225;-66
2021/12/21 05:15:36;;;;;;;0.20;0.20;;;;;;;;;;5102793;27;20220;-66
2021/12/21 05:18:03;;;;;;;0.20;0.20;;;;;;;;;;5122971;27;20222;-66
2021/12/21 05:20:30;;;;;;;0.20;0.20;;;;;;;;;;5104332;27;20188;-65
2021/12/21 05:22:58;;;;;;;0.20;0.20;;;;;;;;;;5126238;27;20239;-65
2021/12/21 05:25:27;;;;;;;0.20;0.20;;;;;;;;;;5105979;27;20193;-66
2021/12/21 05:27:55;;;;;;;0.20;0.20;;;;;;;;;;5120283;27;20218;-66
2021/12/21 05:30:23;;;;;;;0.20;0.20;;;;;;;;;;5112146;27;20233;-66
2021/12/21 05:32:51;;;;;;;0.20;0.20;;;;;;;;;;5109480;27;20221;-68
2021/12/21 05:35:19;;;;;;;0.20;0.20;;;;;;;;;;5129470;27;20253;-68
2021/12/21 05:37:47;;;;;;;0.20;0.20;;;;;;;;;;5128250;27;20325;-66
2021/12/21 05:40:16;;;;;;;0.20;0.20;;;;;;;;;;5110372;27;20224;-66
2021/12/21 05:42:48;;;;;;;0.10;0.10;;;;;;;;;;5110404;27;20220;-68
2021/12/21 05:45:18;;;;;;;0.10;0.10;;;;;;;;;;5112440;27;20224;-66
2021/12/21 05:47:47;;;;;;;0.20;0.20;;;;;;;;;;5111848;27;20727;-67
2021/12/21 05:50:19;;;;;;;0.10;0.10;;;;;;;;;;5129377;27;20208;-68
2021/12/21 05:52:47;;;;;;;0.20;0.20;;;;;;;;;;5112905;27;20281;-67
2021/12/21 05:55:15;;;;;;;0.20;0.20;;;;;;;;;;5112714;27;20197;-67
2021/12/21 05:57:43;;;;;;;0.20;0.20;;;;;;;;;;5112446;27;20197;-67
2021/12/21 06:00:14;;;;;;;0.20;0.20;;;;;;;;;;5110446;27;20217;-67
2021/12/21 06:02:41;;;;;;;0.20;0.20;;;;;;;;;;5130480;27;20235;-67
2021/12/21 06:05:09;;;;;;;0.20;0.20;;;;;;;;;;5110192;27;20208;-67
2021/12/21 06:07:38;;;;;;;0.17;0.17;;;;;;;;;;5100732;27;20205;-70
2021/12/21 06:10:12;;;;;;;0.20;0.20;;;;;;;;;;5129683;27;20193;-67
2021/12/21 06:12:58;;;;;;;0.20;0.20;;;;;;;;;;5109395;27;20236;-67
2021/12/21 06:15:38;;;;;;;0.20;0.20;;;;;;;;;;5105014;27;20772;-67
2021/12/21 06:25:00;;;;;;;0.20;0.20;;;;;;;;;;5018020;27;20220;-68
2021/12/21 06:27:02;;;;;;;0.20;0.20;;;;;;;;;;5129709;27;20200;-67
2021/12/21 06:29:29;;;;;;;0.20;0.20;;;;;;;;;;5111734;27;20229;-67
2021/12/21 06:32:00;;;;;;;0.15;0.15;;;;;;;;;;5109808;27;20217;-67
2021/12/21 06:34:28;;;;;;;0.10;0.10;;;;;;;;;;5120648;27;20196;-68
2021/12/21 06:36:56;;;;;;;0.17;0.17;;;;;;;;;;5110631;27;20197;-68
2021/12/21 06:39:26;;;;;;;0.20;0.20;;;;;;;;;;5106382;27;20201;-67
2021/12/21 06:41:57;;;;;;;0.20;0.20;;;;;;;;;;5111095;27;20234;-66
2021/12/21 06:44:25;;;;;;;0.20;0.20;;;;;;;;;;5118200;27;20201;-67
2021/12/21 06:47:09;;;;;;;0.20;0.20;;;;;;;;;;5108158;27;20201;-67
2021/12/21 06:52:28;;;;;;;0.10;0.10;;;;;;;;;;5117024;27;20547;-66
2021/12/21 06:54:57;;;;;;;0.20;0.20;;;;;;;;;;5101844;27;20197;-68
2021/12/21 06:57:24;;;;;;;0.20;0.20;;;;;;;;;;5110322;27;20647;-68
2021/12/21 06:59:52;;;;;;;0.20;0.20;;;;;;;;;;5130567;27;20204;-66
2021/12/21 07:02:21;;;;;;;0.20;0.20;;;;;;;;;;5105972;27;20248;-68
2021/12/21 07:04:50;;;;;;;0.20;0.20;;;;;;;;;;5128157;27;20197;-65
2021/12/21 07:07:19;;;;;;;0.20;0.20;;;;;;;;;;5129961;27;20260;-66
2021/12/21 07:09:58;;;;;;;0.20;0.20;;;;;;;;;;5111649;27;20231;-65
2021/12/21 07:17:49;;;;;;;0.20;0.20;;;;;;;;;;5124123;27;20232;-67
2021/12/21 07:18:25;;;;;;;0.20;0.20;;;;;;;;;;5121051;27;20204;-66
2021/12/21 07:20:54;;;;;;;0.10;0.10;;;;;;;;;;5127839;27;20181;-67
2021/12/21 07:23:25;;;;;;;0.20;0.20;;;;;;;;;;5110323;27;20705;-65
2021/12/21 07:25:53;;;;;;;0.20;0.20;;;;;;;;;;5130687;27;20201;-65
2021/12/21 07:28:22;;;;;;;0.20;0.20;;;;;;;;;;5110151;28;20222;-65
2021/12/21 07:30:49;;;;;;;0.15;0.15;;;;;;;;;;5098473;27;20203;-66
2021/12/21 07:33:18;;;;;;;0.20;0.20;;;;;;;;;;5107396;28;20224;-66
2021/12/21 07:35:45;;;;;;;0.20;0.20;;;;;;;;;;5116413;27;20196;-66
2021/12/21 07:38:15;;;;;;;0.20;0.20;;;;;;;;;;5105972;27;20196;-66
2021/12/21 07:40:43;;;;;;;0.10;0.10;;;;;;;;;;5126359;28;20208;-66
2021/12/21 07:43:10;;;;;;;0.20;0.20;;;;;;;;;;5103821;28;20237;-66
2021/12/21 07:45:38;;;;;;;0.20;0.20;;;;;;;;;;5104726;28;20241;-65
2021/12/21 07:48:06;;;;;;;0.20;0.20;;;;;;;;;;5104805;28;20245;-66
2021/12/21 07:50:33;;;;;;;0.20;0.20;;;;;;;;;;5104657;28;20225;-67
2021/12/21 07:53:01;;;;;;;0.20;0.20;;;;;;;;;;5096197;28;20216;-65
2021/12/21 07:55:30;;;;;;;0.10;0.10;;;;;;;;;;5106590;28;20200;-65
2021/12/21 07:57:58;;;;;;;0.20;0.20;;;;;;;;;;5113817;28;20201;-66
2021/12/21 08:00:28;;;;;;;0.20;0.20;;;;;;;;;;5105265;28;20197;-65
2021/12/21 08:02:57;;;;;;;0.20;0.20;;;;;;;;;;5115056;28;20590;-66
2021/12/21 08:05:24;;;;;;;0.20;0.20;;;;;;;;;;5116760;28;20695;-66
2021/12/21 08:07:55;;;;;;;0.20;0.20;;;;;;;;;;5116912;28;20200;-65
2021/12/21 08:10:29;;;;;;;0.20;0.20;;;;;;;;;;5097011;28;20340;-66
2021/12/21 08:12:58;;;;;;;0.10;0.10;;;;;;;;;;5109397;28;20243;-66
2021/12/21 08:15:25;;;;;;;0.15;0.15;;;;;;;;;;5099525;28;20198;-65
2021/12/21 08:17:52;;;;;;;0.20;0.20;;;;;;;;;;5098046;28;20262;-65
2021/12/21 08:20:20;;;;;;;0.20;0.20;;;;;;;;;;5111559;28;20193;-65
2021/12/21 08:22:47;;;;;;;0.10;0.10;;;;;;;;;;5099927;28;20216;-66
2021/12/21 08:25:15;;;;;;;0.20;0.20;;;;;;;;;;5107060;27;20201;-66
2021/12/21 08:27:42;;;;;;;0.10;0.10;;;;;;;;;;5117344;28;20199;-66
2021/12/21 08:30:11;;;;;;;0.10;0.10;;;;;;;;;;5097697;28;20248;-66
2021/12/21 08:32:39;;;;;;;0.20;0.20;;;;;;;;;;5098799;28;20221;-65
2021/12/21 08:35:07;;;;;;;0.10;0.10;;;;;;;;;;5099620;28;20238;-65
2021/12/21 08:37:36;;;;;;;0.20;0.20;;;;;;;;;;5096494;28;20197;-66
2021/12/21 08:40:04;;;;;;;0.20;0.20;;;;;;;;;;5117324;28;20644;-67
2021/12/21 08:42:33;;;;;;;0.10;0.10;;;;;;;;;;5101678;28;20330;-67
2021/12/21 08:45:06;;;;;;;0.20;0.20;;;;;;;;;;5091736;28;20196;-67
2021/12/21 08:47:34;;;;;;;0.20;0.20;;;;;;;;;;5116843;28;20701;-67
2021/12/21 08:50:02;;;;;;;0.20;0.20;;;;;;;;;;5112868;27;20611;-66
2021/12/21 08:52:29;;;;;;;0.20;0.20;;;;;;;;;;5102052;27;20221;-66
2021/12/21 08:54:57;;;;;;;0.20;0.20;;;;;;;;;;5104226;27;20197;-66
2021/12/21 08:57:24;;;;;;;0.10;0.10;;;;;;;;;;5123978;27;20199;-66
2021/12/21 08:59:51;;;;;;;0.20;0.20;;;;;;;;;;5106003;27;20263;-66
2021/12/21 09:02:19;;;;;;;0.20;0.20;;;;;;;;;;5099023;27;20227;-66
2021/12/21 09:04:48;;;;;;;0.15;0.15;;;;;;;;;;5121767;27;20188;-67
2021/12/21 09:07:15;;;;;;;0.10;0.10;;;;;;;;;;5116375;27;20296;-67
2021/12/21 09:09:43;;;;;;;0.20;0.20;;;;;;;;;;5106285;27;20220;-66
2021/12/21 09:12:10;;;;;;;0.20;0.20;;;;;;;;;;5117545;27;20235;-67
2021/12/21 09:14:38;;;;;;;0.17;0.17;;;;;;;;;;5103541;27;20221;-67
2021/12/21 09:17:06;;;;;;;0.20;0.20;;;;;;;;;;5122884;27;20193;-67
2021/12/21 09:19:34;;;;;;;0.20;0.20;;;;;;;;;;5106401;27;20197;-66
2021/12/21 09:22:03;;;;;;;0.20;0.20;;;;;;;;;;5115328;27;20217;-67
2021/12/21 09:24:31;;;;;;;0.20;0.20;;;;;;;;;;5103669;27;20208;-66
2021/12/21 09:26:58;;;;;;;0.10;0.10;;;;;;;;;;5109541;27;20201;-66
2021/12/21 09:29:26;;;;;;;0.20;0.20;;;;;;;;;;5104844;27;20256;-65
2021/12/21 09:31:53;;;;;;;0.10;0.10;;;;;;;;;;5104309;27;20762;-66
2021/12/21 09:34:20;;;;;;;0.10;0.10;;;;;;;;;;5104425;27;20925;-67
2021/12/21 09:36:48;;;;;;;0.10;0.10;;;;;;;;;;5122333;27;20199;-66
2021/12/21 09:39:16;;;;;;;0.10;0.10;;;;;;;;;;5105651;27;20193;-66
2021/12/21 09:41:44;;;;;;;0.10;0.10;;;;;;;;;;5104965;27;20216;-67
2021/12/21 09:44:12;;;;;;;0.10;0.10;;;;;;;;;;5100123;27;20708;-67
2021/12/21 09:46:39;;;;;;;0.10;0.10;;;;;;;;;;5106991;27;20631;-67
2021/12/21 09:49:06;;;;;;;0.13;0.13;;;;;;;;;;5100227;27;20274;-67
2021/12/21 09:51:33;;;;;;;0.10;0.10;;;;;;;;;;5117684;27;20200;-67
2021/12/21 09:54:01;;;;;;;0.10;0.10;;;;;;;;;;5100608;27;20610;-67
2021/12/21 09:56:29;;;;;;;0.17;0.17;;;;;;;;;;5097061;27;20618;-67
2021/12/21 09:58:57;;;;;;;0.10;0.10;;;;;;;;;;5100320;27;20641;-67
2021/12/21 10:01:25;;;;;;;0.20;0.20;;;;;;;;;;5101911;27;20625;-67
2021/12/21 10:03:52;;;;;;;0.10;0.10;;;;;;;;;;5110399;27;20193;-67
2021/12/21 10:06:19;;;;;;;0.20;0.20;;;;;;;;;;5103568;27;20640;-67
2021/12/21 10:08:47;;;;;;;0.10;0.10;;;;;;;;;;5103015;27;20695;-66
2021/12/21 10:11:18;;;;;;;0.20;0.20;;;;;;;;;;5100504;27;20216;-66
2021/12/21 10:13:47;;;;;;;0.13;0.13;;;;;;;;;;5111211;27;20649;-67
2021/12/21 10:16:20;;;;;;;0.20;0.20;;;1.50;99.90;;;;;;5118878;27;20611;-67
2021/12/21 10:18:47;;;;;;;0.10;0.10;;;1.50;99.90;;;;;;5101750;27;20660;-66
2021/12/21 10:21:17;;;;;;;0.10;0.10;;;1.50;99.90;;;;;;5119779;27;20617;-66
2021/12/21 10:23:46;;;;;;;0.10;0.10;;;;;;;;;;5100612;27;20757;-67
2021/12/21 10:26:19;;;;;;;0.10;0.10;;;;;;;;;;5111492;27;20623;-67
2021/12/21 10:28:49;;;;;;;0.20;0.20;;;;;;;;;;5100964;27;20610;-66
2021/12/21 10:31:24;;;;;;;0.10;0.10;;;;;;;;;;5114732;27;20714;-67
2021/12/21 10:33:51;;;;;;;0.10;0.10;;;;;;;;;;5109068;27;20656;-66
2021/12/21 10:36:19;;;;;;;0.10;0.10;;;;;;;;;;5100803;27;20620;-67
2021/12/21 10:38:50;;;;;;;0.13;0.13;;;;;;;;;;5099432;27;20625;-66
2021/12/21 10:41:18;;;;;;;0.10;0.10;;;;;;;;;;5101141;27;20670;-66
2021/12/21 10:43:55;;;;;;;0.10;0.10;;;;;;;;;;5118164;27;20697;-66
2021/12/21 10:46:24;;;;;;;0.20;0.20;;;;;;;;;;5107891;27;20649;-66
2021/12/21 10:48:51;;;;;;;0.10;0.10;;;;;;;;;;5101516;27;20671;-66
2021/12/21 10:51:18;;;;;;;0.20;0.20;;;;;;;;;;5103171;27;20610;-66
2021/12/21 10:53:49;;;;;;;0.10;0.10;;;;;;;;;;5122756;27;20633;-66
2021/12/21 10:56:19;;;;;;;0.10;0.10;;;;;;;;;;5104595;27;20653;-67
2021/12/21 10:58:47;;;;;;;0.20;0.20;;;;;;;;;;5101128;27;21288;-67
2021/12/21 11:01:22;;;;;;;0.10;0.10;;;;;;;;;;5092760;27;20721;-67
2021/12/21 11:03:53;;;;;;;0.20;0.20;;;;;;;;;;5116570;27;21241;-67
2021/12/21 11:06:22;;;;;;;0.10;0.10;;;;;;;;;;5117649;27;20614;-67
2021/12/21 11:08:53;;;;;;;0.10;0.10;;;;;;;;;;5108181;27;20626;-67
2021/12/21 11:11:22;;;;;;;0.20;0.20;;;;;;;;;;5108422;27;20650;-68
2021/12/21 11:13:59;;;;;;;0.10;0.10;;;;;;;;;;5102200;27;20621;-66
2021/12/21 11:16:32;;;;;;;0.10;0.10;;;;;;;;;;5117890;27;20617;-66
2021/12/21 11:19:01;;;;;;;0.10;0.10;;;;;;;;;;5101262;27;20629;-67
2021/12/21 11:21:28;;;;;;;0.10;0.10;;;;;;;;;;5099502;27;20629;-66
2021/12/21 11:23:56;;;;;;;0.10;0.10;;;;;;;;;;5100938;27;20657;-66
2021/12/21 11:26:23;;;;;;;0.17;0.17;;;;;;;;;;5100578;27;20652;-67
2021/12/21 11:28:51;;;;;;;0.10;0.10;;;;;;;;;;5099255;28;20800;-67
2021/12/21 11:31:19;;;;;;;0.20;0.20;;;;;;;;;;5099345;27;20647;-66
2021/12/21 11:33:48;;;;;;;0.10;0.10;;;;;;;;;;5119515;27;20714;-66
2021/12/21 11:39:03;;;;;;;0.10;0.10;;;;;;;;;;5110156;27;20624;-66
2021/12/21 11:41:32;;;;;;;0.10;0.10;;;;;;;;;;5121563;28;20698;-65
2021/12/21 11:44:03;;;;;;;0.10;0.10;;;;;;;;;;5125047;28;20651;-65
2021/12/21 11:46:35;;;;;;;0.10;0.10;;;;;;;;;;5114825;28;20718;-64
2021/12/21 11:49:05;;;;;;;0.10;0.10;;;;;;;;;;5117652;28;20622;-65
2021/12/21 11:51:37;;;;;;;0.10;0.10;;;;;;;;;;5108106;28;20650;-67
2021/12/21 11:54:15;;;;;;;0.20;0.20;;;;;;;;;;5097042;28;20705;-67
2021/12/21 11:56:43;;;;;;;0.10;0.10;;;;;;;;;;5105670;28;20626;-68
2021/12/21 11:59:10;;;;;;;0.13;0.13;;;;;;;;;;5108341;28;20720;-67
2021/12/21 12:01:48;;;;;;;0.10;0.10;;;;;;;;;;5127798;28;20690;-67
2021/12/21 12:04:17;;;;;;;0.20;0.20;;;;;;;;;;5126965;28;20635;-67
2021/12/21 12:06:48;;;;;;;0.20;0.20;;;;;;;;;;5097857;28;20620;-67
2021/12/21 12:09:23;;;;;;;0.10;0.10;;;;;;;;;;5099928;28;21230;-68
2021/12/21 12:11:54;;;;;;;0.10;0.10;;;;;;;;;;5113069;28;20676;-68
2021/12/21 12:14:23;;;;;;;0.10;0.10;;;;;;;;;;5112106;28;20622;-67
2021/12/21 12:16:52;;;;;;;0.10;0.10;;;;;;;;;;5098257;28;20653;-68
2021/12/21 12:19:21;;;;;;;0.10;0.10;;;;;;;;;;5107603;28;20610;-67
2021/12/21 12:21:59;;;;;;;0.10;0.10;;;;;;;;;;5101330;28;20660;-67
2021/12/21 12:24:28;;;;;;;0.10;0.10;;;;;;;;;;5102005;27;20614;-66
2021/12/21 12:27:00;;;;;;;0.10;0.10;;;;;;;;;;5109934;27;20698;-68
2021/12/21 12:29:28;;;;;;;0.10;0.10;;;;;;;;;;5126278;27;20617;-67
2021/12/21 12:32:01;;;;;;;0.10;0.10;;;;;;;;;;5107311;27;20729;-67
2021/12/21 12:34:33;;;;;;;0.10;0.10;;;;;;;;;;5126185;27;20605;-68
2021/12/21 12:37:14;;;;;;;0.10;0.10;;;;;;;;;;5100727;27;20726;-68
2021/12/21 12:39:44;;;;;;;0.10;0.10;;;;;;;;;;5119507;27;20632;-68
2021/12/21 12:42:12;;;;;;;0.10;0.10;;;;;;;;;;5118445;27;20721;-68
2021/12/21 12:44:40;;;;;;;0.10;0.10;;;;;;;;;;5127312;27;20608;-67
2021/12/21 12:47:10;;;;;;;0.20;0.20;;;;;;;;;;5128047;27;20622;-66
2021/12/21 12:49:39;;;;;;;0.20;0.20;;;;;;;;;;5119914;27;20619;-67
2021/12/21 12:52:13;;;;;;;0.10;0.10;;;;;;;;;;5106624;27;20647;-68
2021/12/21 12:54:45;;;;;;;0.10;0.10;;;;;;;;;;5128361;27;21155;-66
2021/12/21 12:57:25;;;;;;;0.10;0.10;;;;;;;;;;5112839;27;20621;-66
2021/12/21 12:59:53;;;;;;;0.10;0.10;;;;;;;;;;5130568;27;20617;-68
2021/12/21 13:02:22;;;;;;;0.10;0.10;;;;;;;;;;5125752;27;20630;-67
2021/12/21 13:04:51;;;;;;;0.10;0.10;;;;;;;;;;5111454;27;20628;-67
2021/12/21 13:07:29;;;;;;;0.10;0.10;;;;;;;;;;5119817;27;20725;-67
2021/12/21 13:10:08;;;;;;;0.10;0.10;;;;;;;;;;5126282;27;20593;-67
2021/12/21 13:12:37;;;;;;;0.10;0.10;;;;;;;;;;5111393;27;20660;-67
2021/12/21 13:15:06;;;;;;;0.10;0.10;;;;;;;;;;5123834;27;20633;-67
2021/12/21 13:17:34;;;;;;;0.10;0.10;;;;;;;;;;5104015;27;20610;-67
2021/12/21 13:20:01;;;;;;;0.10;0.10;;;;;;;;;;5110492;27;20632;-66
2021/12/21 13:22:30;;;;;;;0.10;0.10;;;;;;;;;;5103068;27;20652;-66
2021/12/21 13:24:58;;;;;;;0.10;0.10;;;;;;;;;;5116080;27;20602;-67
2021/12/21 13:27:27;;;;;;;0.10;0.10;;;;;;;;;;5102822;27;20687;-67
2021/12/21 13:29:54;;;;;;;0.10;0.10;;;;;;;;;;5119147;27;20658;-68
2021/12/21 13:32:22;;;;;;;0.10;0.10;;;;;;;;;;5117957;27;20666;-67
2021/12/21 13:34:53;;;;;;;0.10;0.10;;;;;;;;;;5101923;28;20626;-67
2021/12/21 13:37:22;;;;;;;0.10;0.10;;;;;;;;;;5115120;27;20629;-66
2021/12/21 13:39:57;;;;;;;0.10;0.10;;;;;;;;;;5099579;27;20619;-66
2021/12/21 13:42:27;;;;;;;0.10;0.10;;;;;;;;;;5115517;27;20656;-66
2021/12/21 13:44:56;;;;;;;0.20;0.20;;;;;;;;;;5106426;27;20755;-67
2021/12/21 13:47:24;;;;;;;0.10;0.10;;;;;;;;;;5090766;27;20618;-66
2021/12/21 13:49:52;;;;;;;0.20;0.20;;;;;;;;;;5120619;27;20602;-67
2021/12/21 13:52:20;;;;;;;0.10;0.10;;;;;;;;;;5119643;27;20638;-69
2021/12/21 13:54:47;;;;;;;0.10;0.10;;;;;;;;;;5119125;27;20606;-70
2021/12/21 13:57:17;;;;;;;0.10;0.10;;;;;;;;;;5116181;27;20634;-69
2021/12/21 13:59:48;;;;;;;0.10;0.10;;;;;;;;;;5132468;27;20725;-69
2021/12/21 14:02:23;;;;;;;0.10;0.10;;;;;;;;;;5101237;27;20654;-70
2021/12/21 14:04:59;;;;;;;0.10;0.10;;;;;;;;;;5109834;27;20609;-69
2021/12/21 14:07:27;;;;;;;0.10;0.10;;;;;;;;;;5115381;27;20624;-69
2021/12/21 14:10:02;;;;;;;0.10;0.10;;;;;;;;;;5100977;27;20673;-72
2021/12/21 14:12:31;;;;;;;0.10;0.10;;;;;;;;;;5111795;27;20680;-70
2021/12/21 14:14:58;;;;;;;0.20;0.20;;;;;;;;;;5116753;27;20603;-71
2021/12/21 14:17:27;;;;;;;0.10;0.10;;;;;;;;;;5103692;27;20685;-70
2021/12/21 14:19:58;;;;;;;0.17;0.17;;;;;;;;;;5106920;27;20635;-69
2021/12/21 14:22:26;;;;;;;0.10;0.10;;;;;;;;;;5101226;27;20646;-69
2021/12/21 14:24:53;;;;;;;0.10;0.10;;;;;;;;;;5117502;27;20615;-70
2021/12/21 14:27:26;;;;;;;0.20;0.20;;;;;;;;;;5117888;27;20633;-69
2021/12/21 14:30:06;;;;;;;0.10;0.10;;;;;;;;;;5108795;27;21350;-72
2021/12/21 14:32:52;;;;;;;0.13;0.13;;;;;;;;;;5109143;27;20638;-70
2021/12/21 14:35:21;;;;;;;0.10;0.10;;;;;;;;;;5103521;27;20633;-72
2021/12/21 14:37:48;;;;;;;0.10;0.10;;;;;;;;;;5101732;27;20614;-70
2021/12/21 14:40:18;;;;;;;0.10;0.10;;;;;;;;;;5119509;27;20628;-69
2021/12/21 14:42:51;;;;;;;0.20;0.20;;;;;;;;;;5118189;27;20629;-69
2021/12/21 14:45:19;;;;;;;0.20;0.20;;;;;;;;;;5122698;27;20618;-71
2021/12/21 14:47:47;;;;;;;0.10;0.10;;;;;;;;;;5117242;27;20626;-70
2021/12/21 14:50:16;;;;;;;0.10;0.10;;;;;;;;;;5112046;27;20658;-70
2021/12/21 14:52:45;;;;;;;0.10;0.10;;;;;;;;;;5109865;27;20634;-71
2021/12/21 14:55:14;;;;;;;0.10;0.10;;;;;;;;;;5094153;27;20620;-71
2021/12/21 14:57:45;;;;;;;0.10;0.10;;;;;;;;;;5103727;27;20629;-69
2021/12/21 15:00:14;;;;;;;0.10;0.10;;;;;;;;;;5102722;27;20725;-68
2021/12/21 15:02:52;;;;;;;0.10;0.10;;;;;;;;;;5108318;27;21063;-68
2021/12/21 15:05:20;;;;;;;0.10;0.10;;;;;;;;;;5101606;27;20621;-68
2021/12/21 15:07:48;;;;;;;0.10;0.10;;;;;;;;;;5101275;27;20625;-72
2021/12/21 15:10:16;;;;;;;0.10;0.10;;;;;;;;;;5094727;27;20627;-69
2021/12/21 15:12:44;;;;;;;0.10;0.10;;;;;;;;;;5098241;27;20760;-68
2021/12/21 15:15:11;;;;;;;0.10;0.10;;;;;;;;;;5098262;27;20647;-68
2021/12/21 15:17:40;;;;;;;0.10;0.10;;;;;;;;;;5119961;27;20602;-70
2021/12/21 15:20:10;;;;;;;0.10;0.10;;;;;;;;;;5109610;27;20619;-69
2021/12/21 15:22:38;;;;;;;0.10;0.10;;;;;;;;;;5102440;27;20642;-68